createdAt,value
2023-02-06T00:01:48.755Z,-3.41
2023-02-06T00:04:18.159Z,-3.42
2023-02-06T00:06:47.484Z,-3.44
2023-02-06T00:09:18.086Z,-3.46
2023-02-06T00:11:49.043Z,-3.47
2023-02-06T00:14:17.610Z,-3.49
2023-02-06T00:17:06.467Z,-3.50
2023-02-06T00:19:35.564Z,-3.49
2023-02-06T00:22:04.745Z,-3.49
2023-02-06T00:24:33.483Z,-3.49
2023-02-06T00:27:02.969Z,-3.47
2023-02-06T00:29:32.251Z,-3.46
2023-02-06T00:32:01.366Z,-3.47
2023-02-06T00:34:30.341Z,-3.49
2023-02-06T00:36:59.337Z,-3.49
2023-02-06T00:39:30.179Z,-3.49
2023-02-06T00:41:59.289Z,-3.49
2023-02-06T00:44:29.284Z,-3.52
2023-02-06T00:46:59.208Z,-3.55
2023-02-06T00:49:32.355Z,-3.58
2023-02-06T00:52:01.274Z,-3.59
2023-02-06T00:54:30.356Z,-3.61
2023-02-06T00:56:58.856Z,-3.62
2023-02-06T00:59:27.517Z,-3.62
2023-02-06T01:01:56.666Z,-3.62
2023-02-06T01:04:25.216Z,-3.62
2023-02-06T01:07:02.614Z,-3.64
2023-02-06T01:09:32.940Z,-3.66
2023-02-06T01:12:01.827Z,-3.67
2023-02-06T01:14:30.620Z,-3.66
2023-02-06T01:16:59.394Z,-3.66
2023-02-06T01:19:28.386Z,-3.66
2023-02-06T01:21:57.758Z,-3.67
2023-02-06T01:24:26.270Z,-3.67
2023-02-06T01:26:55.816Z,-3.68
2023-02-06T01:29:25.589Z,-3.68
2023-02-06T01:31:54.559Z,-3.69
2023-02-06T01:34:23.270Z,-3.71
2023-02-06T01:36:52.571Z,-3.73
2023-02-06T01:39:21.460Z,-3.74
2023-02-06T01:41:51.370Z,-3.75
2023-02-06T01:44:22.795Z,-3.76
2023-02-06T01:46:53.582Z,-3.77
2023-02-06T01:49:26.539Z,-3.78
2023-02-06T01:52:08.138Z,-3.82
2023-02-06T01:54:36.631Z,-3.84
2023-02-06T01:57:07.144Z,-3.85
2023-02-06T01:59:36.030Z,-3.87
2023-02-06T02:02:05.540Z,-3.90
2023-02-06T02:04:34.928Z,-3.91
2023-02-06T02:07:08.958Z,-3.91
2023-02-06T02:09:37.487Z,-3.93
2023-02-06T02:12:09.574Z,-3.94
2023-02-06T02:14:42.292Z,-3.93
2023-02-06T02:17:33.498Z,-3.94
2023-02-06T02:20:25.015Z,-3.96
2023-02-06T02:22:53.802Z,-3.97
2023-02-06T02:25:49.656Z,-3.98
2023-02-06T02:28:27.639Z,-4.00
2023-02-06T02:31:02.666Z,-4.02
2023-02-06T02:33:50.323Z,-4.01
2023-02-06T02:36:26.238Z,-4.00
2023-02-06T02:39:13.579Z,-3.99
2023-02-06T02:41:48.196Z,-3.99
2023-02-06T02:44:57.153Z,-4.01
2023-02-06T02:47:29.840Z,-4.02
2023-02-06T02:50:00.685Z,-4.04
2023-02-06T02:52:29.459Z,-4.05
2023-02-06T02:54:58.594Z,-4.07
2023-02-06T02:57:30.440Z,-4.09
2023-02-06T02:59:59.989Z,-4.11
2023-02-06T03:02:32.934Z,-4.13
2023-02-06T03:05:04.664Z,-4.14
2023-02-06T03:07:41.582Z,-4.15
2023-02-06T03:10:19.816Z,-4.16
2023-02-06T03:13:04.543Z,-4.15
2023-02-06T03:15:37.113Z,-4.14
2023-02-06T03:18:13.109Z,-4.15
2023-02-06T03:20:43.949Z,-4.16
2023-02-06T03:23:17.844Z,-4.17
2023-02-06T03:25:47.009Z,-4.21
2023-02-06T03:28:24.088Z,-4.23
2023-02-06T03:30:54.582Z,-4.24
2023-02-06T03:33:27.924Z,-4.25
2023-02-06T03:35:57.258Z,-4.24
2023-02-06T03:38:28.605Z,-4.24
2023-02-06T03:40:57.162Z,-4.24
2023-02-06T03:43:26.188Z,-4.22
2023-02-06T03:46:00.777Z,-4.21
2023-02-06T03:48:34.305Z,-4.19
2023-02-06T03:51:05.052Z,-4.17
2023-02-06T03:53:35.570Z,-4.15
2023-02-06T03:56:10.133Z,-4.15
2023-02-06T03:58:39.111Z,-4.15
2023-02-06T04:01:07.808Z,-4.15
2023-02-06T04:03:36.630Z,-4.15
2023-02-06T04:06:05.147Z,-4.16
2023-02-06T04:08:36.404Z,-4.17
2023-02-06T04:11:05.283Z,-4.18
2023-02-06T04:13:34.891Z,-4.20
2023-02-06T04:16:05.727Z,-4.20
2023-02-06T04:18:34.411Z,-4.22
2023-02-06T04:21:06.883Z,-4.24
2023-02-06T04:23:35.475Z,-4.24
2023-02-06T04:26:04.981Z,-4.23
2023-02-06T04:28:33.674Z,-4.26
2023-02-06T04:31:03.027Z,-4.29
2023-02-06T04:33:32.364Z,-4.32
2023-02-06T04:36:01.151Z,-4.33
2023-02-06T04:38:30.457Z,-4.34
2023-02-06T04:41:04.222Z,-4.34
2023-02-06T04:43:33.965Z,-4.35
2023-02-06T04:46:03.925Z,-4.37
2023-02-06T04:48:33.793Z,-4.38
2023-02-06T04:51:02.478Z,-4.36
2023-02-06T04:53:32.394Z,-4.36
2023-02-06T04:56:10.108Z,-4.36
2023-02-06T04:58:39.603Z,-4.36
2023-02-06T05:01:09.049Z,-4.36
2023-02-06T05:03:37.782Z,-4.37
2023-02-06T05:06:08.064Z,-4.40
2023-02-06T05:08:36.691Z,-4.44
2023-02-06T05:11:06.979Z,-4.46
2023-02-06T05:13:36.724Z,-4.46
2023-02-06T05:16:12.820Z,-4.47
2023-02-06T05:18:42.490Z,-4.48
2023-02-06T05:21:12.303Z,-4.49
2023-02-06T05:23:41.191Z,-4.48
2023-02-06T05:26:10.068Z,-4.49
2023-02-06T05:28:38.973Z,-4.50
2023-02-06T05:31:07.916Z,-4.50
2023-02-06T05:33:36.770Z,-4.52
2023-02-06T05:36:06.909Z,-4.54
2023-02-06T05:38:36.308Z,-4.55
2023-02-06T05:41:05.168Z,-4.53
2023-02-06T05:43:34.680Z,-4.53
2023-02-06T05:46:03.283Z,-4.55
2023-02-06T05:48:35.357Z,-4.56
2023-02-06T05:51:04.518Z,-4.58
2023-02-06T05:53:33.431Z,-4.60
2023-02-06T05:56:02.199Z,-4.62
2023-02-06T05:58:31.507Z,-4.63
2023-02-06T06:01:00.310Z,-4.65
2023-02-06T06:03:29.073Z,-4.66
2023-02-06T06:05:58.378Z,-4.68
2023-02-06T06:08:27.163Z,-4.72
2023-02-06T06:10:55.764Z,-4.73
2023-02-06T06:13:24.539Z,-4.76
2023-02-06T06:15:54.020Z,-4.78
2023-02-06T06:18:23.135Z,-4.79
2023-02-06T06:20:51.847Z,-4.80
2023-02-06T06:23:21.434Z,-4.79
2023-02-06T06:25:50.116Z,-4.79
2023-02-06T06:28:19.640Z,-4.80
2023-02-06T06:30:48.626Z,-4.80
2023-02-06T06:33:18.115Z,-4.79
2023-02-06T06:35:46.600Z,-4.76
2023-02-06T06:38:15.597Z,-4.72
2023-02-06T06:40:44.557Z,-4.69
2023-02-06T06:43:13.169Z,-4.63
2023-02-06T06:45:42.004Z,-4.55
2023-02-06T06:48:11.256Z,-4.45
2023-02-06T06:50:40.148Z,-4.38
2023-02-06T06:53:08.760Z,-4.29
2023-02-06T06:55:38.099Z,-4.19
2023-02-06T06:58:08.160Z,-4.12
2023-02-06T07:00:38.632Z,-4.05
2023-02-06T07:03:08.180Z,-3.97
2023-02-06T07:05:37.335Z,-3.92
2023-02-06T07:08:07.983Z,-3.84
2023-02-06T07:10:37.004Z,-3.73
2023-02-06T07:13:06.814Z,-3.62
2023-02-06T07:15:36.545Z,-3.54
2023-02-06T07:18:06.133Z,-3.52
2023-02-06T07:20:38.666Z,-3.44
2023-02-06T07:23:07.928Z,-3.34
2023-02-06T07:25:37.116Z,-3.26
2023-02-06T07:28:05.913Z,-3.14
2023-02-06T07:30:35.036Z,-3.02
2023-02-06T07:33:05.623Z,-2.91
2023-02-06T07:35:34.718Z,-2.82
2023-02-06T07:38:03.451Z,-2.74
2023-02-06T07:40:44.006Z,-2.68
2023-02-06T07:43:14.290Z,-2.60
2023-02-06T07:45:43.020Z,-2.50
2023-02-06T07:48:11.596Z,-2.35
2023-02-06T07:50:40.061Z,-2.19
2023-02-06T07:53:08.631Z,-2.08
2023-02-06T07:55:38.607Z,-2.03
2023-02-06T07:58:07.395Z,-1.96
2023-02-06T08:00:36.025Z,-1.86
2023-02-06T08:03:05.430Z,-1.78
2023-02-06T08:05:35.955Z,-1.73
2023-02-06T08:08:06.860Z,-1.65
2023-02-06T08:10:37.796Z,-1.50
2023-02-06T08:13:26.061Z,-1.33
2023-02-06T08:15:54.627Z,-1.29
2023-02-06T08:18:23.738Z,-1.23
2023-02-06T08:20:52.333Z,-1.12
2023-02-06T08:23:21.217Z,-1.01
2023-02-06T08:25:51.801Z,-0.97
2023-02-06T08:28:20.421Z,-0.89
2023-02-06T08:30:49.246Z,-0.79
2023-02-06T08:33:17.868Z,-0.66
2023-02-06T08:35:50.242Z,-0.51
2023-02-06T08:38:19.121Z,-0.43
2023-02-06T08:40:48.671Z,-0.43
2023-02-06T08:43:17.982Z,-0.38
2023-02-06T08:45:53.701Z,-0.34
2023-02-06T08:48:22.470Z,-0.32
2023-02-06T08:50:51.542Z,-0.31
2023-02-06T08:53:20.675Z,-0.22
2023-02-06T08:55:49.862Z,-0.09
2023-02-06T08:58:18.717Z,0.04
2023-02-06T09:00:48.828Z,0.07
2023-02-06T09:03:17.506Z,0.09
2023-02-06T09:05:46.043Z,0.03
2023-02-06T09:08:14.760Z,0.11
2023-02-06T09:10:43.358Z,0.24
2023-02-06T09:13:12.124Z,0.31
2023-02-06T09:15:41.773Z,0.37
2023-02-06T09:18:11.256Z,0.54
2023-02-06T09:20:40.321Z,0.69
2023-02-06T09:23:12.489Z,0.76
2023-02-06T09:25:58.916Z,0.62
2023-02-06T09:28:30.943Z,0.47
2023-02-06T09:31:00.872Z,0.41
2023-02-06T09:33:29.867Z,0.41
2023-02-06T09:36:10.040Z,0.39
2023-02-06T09:38:41.475Z,0.52
2023-02-06T09:41:31.975Z,0.74
2023-02-06T09:44:15.918Z,0.89
2023-02-06T09:47:12.921Z,0.97
2023-02-06T09:49:49.814Z,0.99
2023-02-06T09:52:21.489Z,0.86
2023-02-06T09:55:08.847Z,0.65
2023-02-06T09:58:05.422Z,0.42
2023-02-06T10:00:43.181Z,0.28
2023-02-06T10:03:22.297Z,0.16
2023-02-06T10:06:09.503Z,0.12
2023-02-06T10:09:05.480Z,0.12
2023-02-06T10:11:46.119Z,0.16
2023-02-06T10:14:35.948Z,0.33
2023-02-06T10:17:18.927Z,0.55
2023-02-06T10:20:00.221Z,0.67
2023-02-06T10:22:32.777Z,0.67
2023-02-06T10:25:21.306Z,0.62
2023-02-06T10:27:55.273Z,0.57
2023-02-06T10:30:50.738Z,0.57
2023-02-06T10:33:58.153Z,0.63
2023-02-06T10:36:58.638Z,0.55
2023-02-06T10:39:54.917Z,0.34
2023-02-06T10:42:44.304Z,0.10
2023-02-06T10:45:20.695Z,-0.13
2023-02-06T10:48:15.302Z,-0.28
2023-02-06T10:51:18.238Z,-0.37
2023-02-06T10:54:05.181Z,-0.43
2023-02-06T10:56:41.965Z,-0.56
2023-02-06T10:59:39.516Z,-0.69
2023-02-06T11:02:12.127Z,-0.77
2023-02-06T11:04:48.644Z,-0.85
2023-02-06T11:07:48.466Z,-0.93
2023-02-06T11:10:22.294Z,-0.96
2023-02-06T11:13:03.790Z,-0.96
2023-02-06T11:15:58.706Z,-0.88
2023-02-06T11:18:32.354Z,-0.83
2023-02-06T11:21:01.028Z,-0.81
2023-02-06T11:23:31.091Z,-0.79
2023-02-06T11:26:14.612Z,-0.74
2023-02-06T11:28:52.902Z,-0.64
2023-02-06T11:31:38.524Z,-0.61
2023-02-06T11:34:07.168Z,-0.66
2023-02-06T11:36:36.989Z,-0.70
2023-02-06T11:39:22.119Z,-0.72
2023-02-06T11:42:20.801Z,-0.76
2023-02-06T11:44:52.358Z,-0.85
2023-02-06T11:47:35.066Z,-0.97
2023-02-06T11:50:28.895Z,-1.05
2023-02-06T11:53:15.495Z,-1.19
2023-02-06T11:55:45.443Z,-1.27
2023-02-06T11:58:14.324Z,-1.36
2023-02-06T12:00:55.564Z,-1.38
2023-02-06T12:03:27.060Z,-1.48
2023-02-06T12:05:57.802Z,-1.59
2023-02-06T12:08:35.519Z,-1.65
2023-02-06T12:11:05.426Z,-1.74
2023-02-06T12:13:39.801Z,-1.78
2023-02-06T12:16:08.375Z,-1.79
2023-02-06T12:18:40.139Z,-1.75
2023-02-06T12:49:20.310Z,-1.93
2023-02-06T12:51:56.469Z,-2.02
2023-02-06T12:54:34.026Z,-2.01
2023-02-06T12:57:12.483Z,-2.03
2023-02-06T13:00:04.111Z,-2.02
2023-02-06T13:02:45.989Z,-1.97
2023-02-06T13:05:24.323Z,-1.88
2023-02-06T13:07:53.137Z,-1.83
2023-02-06T13:10:24.459Z,-1.81
2023-02-06T13:12:54.916Z,-1.80
2023-02-06T13:15:27.733Z,-1.78
2023-02-06T13:17:58.842Z,-1.76
2023-02-06T13:20:28.047Z,-1.78
2023-02-06T13:23:12.629Z,-1.79
2023-02-06T13:25:41.622Z,-1.82
2023-02-06T13:28:22.066Z,-1.84
2023-02-06T13:30:59.784Z,-1.85
2023-02-06T13:33:39.844Z,-1.86
2023-02-06T13:36:14.668Z,-1.90
2023-02-06T13:38:44.193Z,-1.95
2023-02-06T13:41:12.967Z,-1.99
2023-02-06T13:49:57.402Z,-2.10
2023-02-06T13:52:35.908Z,-2.20
2023-02-06T13:55:23.453Z,-2.30
2023-02-06T13:58:04.341Z,-2.43
2023-02-06T14:00:33.275Z,-2.56
2023-02-06T14:03:13.634Z,-2.66
2023-02-06T14:05:54.083Z,-2.73
2023-02-06T14:08:41.788Z,-2.73
2023-02-06T14:11:16.947Z,-2.75
2023-02-06T14:13:59.695Z,-2.80
2023-02-06T14:16:50.380Z,-2.86
2023-02-06T14:19:49.959Z,-2.84
2023-02-06T14:22:42.640Z,-2.84
2023-02-06T14:25:16.860Z,-2.88
2023-02-06T14:28:10.567Z,-2.96
2023-02-06T18:20:47.264Z,-5.78
2023-02-06T18:23:15.845Z,-5.65
2023-02-06T18:25:44.840Z,-5.63
2023-02-06T18:28:15.499Z,-5.62
2023-02-06T18:30:49.191Z,-5.62
2023-02-06T18:33:18.458Z,-5.63
2023-02-06T18:35:51.037Z,-5.64
2023-02-06T18:38:19.924Z,-5.65
2023-02-06T18:40:53.271Z,-5.64
2023-02-06T18:43:21.722Z,-5.65
2023-02-06T18:45:50.123Z,-5.66
2023-02-06T18:48:19.748Z,-5.68
2023-02-06T18:50:49.084Z,-5.69
2023-02-06T18:53:17.882Z,-5.68
2023-02-06T18:55:57.723Z,-5.67
2023-02-06T18:58:26.206Z,-5.69
2023-02-06T19:00:54.907Z,-5.70
2023-02-06T19:03:23.876Z,-5.70
2023-02-06T19:05:53.493Z,-5.69
2023-02-06T19:08:22.380Z,-5.68
2023-02-06T19:10:51.178Z,-5.65
2023-02-06T19:13:20.030Z,-5.62
2023-02-06T19:15:48.626Z,-5.60
2023-02-06T19:18:19.751Z,-5.58
2023-02-06T19:20:52.874Z,-5.56
2023-02-06T19:23:21.737Z,-5.54
2023-02-06T19:25:50.261Z,-5.52
2023-02-06T19:28:18.931Z,-5.51
2023-02-06T19:30:47.741Z,-5.53
2023-02-06T19:33:17.055Z,-5.56
2023-02-06T19:35:45.921Z,-5.57
2023-02-06T19:38:15.207Z,-5.58
2023-02-06T19:40:45.341Z,-5.59
2023-02-06T19:43:15.020Z,-5.59
2023-02-06T19:45:43.540Z,-5.60
2023-02-06T19:48:14.992Z,-5.58
2023-02-06T19:50:43.956Z,-5.54
2023-02-06T19:53:15.553Z,-5.51
2023-02-06T19:55:48.978Z,-5.49
2023-02-06T19:58:17.940Z,-5.50
2023-02-06T20:00:46.816Z,-5.50
2023-02-06T20:03:15.723Z,-5.50
2023-02-06T20:05:45.181Z,-5.50
2023-02-06T20:08:14.072Z,-5.47
2023-02-06T20:10:43.066Z,-5.45
2023-02-06T20:13:11.652Z,-5.43
2023-02-06T20:15:40.552Z,-5.41
2023-02-06T20:18:09.128Z,-5.39
2023-02-06T20:20:38.525Z,-5.35
2023-02-06T20:23:07.624Z,-5.31
2023-02-06T20:25:37.564Z,-5.27
2023-02-06T20:28:06.255Z,-5.23
2023-02-06T20:30:35.707Z,-5.19
2023-02-06T20:33:05.133Z,-5.16
2023-02-06T20:35:33.718Z,-5.13
2023-02-06T20:38:02.469Z,-5.10
2023-02-06T20:40:31.437Z,-5.08
2023-02-06T20:43:00.097Z,-5.06
2023-02-06T20:45:28.796Z,-5.05
2023-02-06T20:47:57.565Z,-5.06
2023-02-06T20:50:29.153Z,-5.07
2023-02-06T20:52:58.507Z,-5.06
2023-02-06T20:55:27.291Z,-5.04
2023-02-06T20:57:56.226Z,-5.03
2023-02-06T21:00:24.638Z,-5.03
2023-02-06T21:02:53.691Z,-5.00
2023-02-06T21:05:22.261Z,-4.98
2023-02-06T21:07:50.977Z,-4.94
2023-02-06T21:10:20.254Z,-4.92
2023-02-06T21:12:48.851Z,-4.92
2023-02-06T21:15:17.426Z,-4.90
2023-02-06T21:17:46.544Z,-4.91
2023-02-06T21:20:16.519Z,-4.92
2023-02-06T21:22:44.987Z,-4.93
2023-02-06T21:25:13.879Z,-4.94
2023-02-06T21:27:42.568Z,-4.94
2023-02-06T21:30:12.585Z,-4.94
2023-02-06T21:32:41.273Z,-4.92
2023-02-06T21:35:10.775Z,-4.92
2023-02-06T21:37:39.255Z,-4.91
2023-02-06T21:40:08.553Z,-4.91
2023-02-06T21:42:38.264Z,-4.91
2023-02-06T21:45:07.880Z,-4.93
2023-02-06T21:47:37.685Z,-4.95
2023-02-06T21:50:08.291Z,-4.98
2023-02-06T21:52:38.014Z,-4.99
2023-02-06T21:55:07.717Z,-4.98
2023-02-06T21:57:36.930Z,-4.98
2023-02-06T22:00:06.083Z,-4.99
2023-02-06T22:02:41.548Z,-5.00
2023-02-06T22:05:10.496Z,-5.01
2023-02-06T22:07:39.000Z,-5.01
2023-02-06T22:10:09.421Z,-5.00
